Time;durP1;ratioP1;P1;durP2;ratioP2;P2;SDS_P1;SDS_P2;PMS_P1;PMS_P2;Temp;Humidity;BMP_temperature;BMP_pressure;BME280_temperature;BME280_humidity;BME280_pressure;Samples;Min_cycle;Max_cycle;Signal;HPM_P1;HPM_P2
2023/11/07 00:01:21;;;;;;;4.80;1.40;;;10.30;99.90;;;;;;4142656;28;20572;-69
2023/11/07 00:03:22;;;;;;;3.05;0.90;;;10.40;99.90;;;;;;4158096;28;20037;-69
2023/11/07 00:05:22;;;;;;;6.50;1.42;;;10.40;99.90;;;;;;4139578;28;20121;-69
2023/11/07 00:07:23;;;;;;;4.10;1.27;;;10.40;99.90;;;;;;4144855;28;20038;-69
2023/11/07 00:09:24;;;;;;;7.70;1.60;;;10.40;99.90;;;;;;4144894;28;20037;-69
2023/11/07 00:11:25;;;;;;;5.45;1.40;;;10.40;99.90;;;;;;4146081;28;20045;-69
2023/11/07 00:13:25;;;;;;;3.63;1.10;;;10.40;99.90;;;;;;4145189;28;20391;-69
2023/11/07 00:15:26;;;;;;;3.08;1.30;;;10.40;99.90;;;;;;4151053;28;20054;-69
2023/11/07 00:17:26;;;;;;;3.63;1.20;;;10.40;99.90;;;;;;4146662;28;20034;-69
2023/11/07 00:19:27;;;;;;;5.47;1.45;;;10.40;99.90;;;;;;4145679;28;20072;-69
2023/11/07 00:21:27;;;;;;;7.28;1.35;;;10.40;99.90;;;;;;4161994;28;20429;-69
2023/11/07 00:23:29;;;;;;;6.70;1.65;;;10.40;99.90;;;;;;4160122;28;20080;-69
2023/11/07 00:25:29;;;;;;;4.90;1.35;;;10.40;99.90;;;;;;4144165;28;20458;-69
2023/11/07 00:27:30;;;;;;;6.60;1.40;;;10.40;99.90;;;;;;4146879;28;20038;-69
2023/11/07 00:29:31;;;;;;;6.53;1.27;;;10.40;99.90;;;;;;4157250;28;20037;-69
2023/11/07 00:31:32;;;;;;;6.32;1.83;;;10.40;99.90;;;;;;4160947;28;20033;-69
2023/11/07 00:33:33;;;;;;;3.60;1.48;;;10.40;99.90;;;;;;4162059;28;20044;-69
2023/11/07 00:35:33;;;;;;;7.25;1.60;;;10.40;99.90;;;;;;4150224;28;20050;-69
2023/11/07 00:37:34;;;;;;;6.47;1.42;;;10.40;99.90;;;;;;4146092;28;20033;-74
2023/11/07 00:39:35;;;;;;;5.00;1.42;;;10.40;99.90;;;;;;4147686;28;20038;-72
2023/11/07 00:41:35;;;;;;;5.03;1.42;;;10.40;99.90;;;;;;4176217;28;20029;-73
2023/11/07 00:43:36;;;;;;;5.60;1.35;;;10.40;99.90;;;;;;4155913;28;20074;-73
2023/11/07 00:45:37;;;;;;;5.05;1.73;;;10.40;99.90;;;;;;4149554;28;20386;-73
2023/11/07 00:47:37;;;;;;;4.30;1.23;;;10.40;99.90;;;;;;4145911;28;20061;-73
2023/11/07 00:49:38;;;;;;;3.42;1.23;;;10.40;99.90;;;;;;4149505;28;20029;-73
2023/11/07 00:51:39;;;;;;;3.50;1.45;;;10.40;99.90;;;;;;4157015;28;20041;-73
2023/11/07 00:53:39;;;;;;;6.95;1.48;;;10.50;99.90;;;;;;4144821;28;20556;-73
2023/11/07 00:55:40;;;;;;;3.78;1.20;;;10.40;99.90;;;;;;4142131;28;20046;-74
2023/11/07 00:57:42;;;;;;;7.28;1.80;;;10.40;99.90;;;;;;4143965;28;20034;-74
2023/11/07 00:59:43;;;;;;;3.85;1.25;;;10.40;99.90;;;;;;4147651;28;20124;-74
2023/11/07 01:01:43;;;;;;;3.33;1.20;;;10.40;99.90;;;;;;4159666;28;20031;-73
2023/11/07 01:03:45;;;;;;;4.93;1.50;;;10.40;99.90;;;;;;4162100;28;20052;-73
2023/11/07 01:05:45;;;;;;;4.32;1.40;;;10.40;99.90;;;;;;4150732;28;20030;-74
2023/11/07 01:07:46;;;;;;;4.32;1.35;;;10.40;99.90;;;;;;4162144;28;20029;-73
2023/11/07 01:09:46;;;;;;;6.32;1.63;;;10.40;99.90;;;;;;4153591;28;20030;-74
2023/11/07 01:11:47;;;;;;;6.55;1.58;;;10.40;99.90;;;;;;4158932;28;20034;-73
2023/11/07 01:13:48;;;;;;;5.57;1.35;;;10.40;99.90;;;;;;4144877;28;20552;-73
2023/11/07 01:15:48;;;;;;;4.82;1.27;;;10.40;99.90;;;;;;4151291;28;20446;-73
2023/11/07 01:17:49;;;;;;;5.38;1.70;;;10.40;99.90;;;;;;4161755;28;20040;-73
2023/11/07 01:19:50;;;;;;;4.20;1.42;;;10.40;99.90;;;;;;4151487;28;20060;-73
2023/11/07 01:21:50;;;;;;;6.22;1.42;;;10.40;99.90;;;;;;4144135;28;20129;-73
2023/11/07 01:23:51;;;;;;;3.95;1.30;;;10.40;99.90;;;;;;4143814;28;20505;-73
2023/11/07 01:25:52;;;;;;;4.80;1.35;;;10.40;99.90;;;;;;4150845;28;20435;-73
2023/11/07 01:27:52;;;;;;;4.40;1.50;;;10.40;99.90;;;;;;4153371;28;20041;-73
2023/11/07 01:29:53;;;;;;;5.53;1.67;;;10.40;99.90;;;;;;4154244;28;20053;-74
2023/11/07 01:31:53;;;;;;;3.67;1.30;;;10.30;99.90;;;;;;4154707;28;20619;-74
2023/11/07 01:33:54;;;;;;;4.53;1.60;;;10.30;99.90;;;;;;4145170;28;20383;-74
2023/11/07 01:35:55;;;;;;;2.70;1.20;;;10.40;99.90;;;;;;4149549;28;20503;-73
2023/11/07 01:37:56;;;;;;;3.40;1.17;;;10.40;99.90;;;;;;4158138;28;20034;-74
2023/11/07 01:39:56;;;;;;;4.65;1.33;;;10.30;99.90;;;;;;4145088;28;20049;-73
2023/11/07 01:41:57;;;;;;;6.78;1.50;;;10.40;99.90;;;;;;4135404;28;20463;-74
2023/11/07 01:43:58;;;;;;;2.53;1.15;;;10.30;99.90;;;;;;4144671;28;20038;-74
2023/11/07 01:46:03;;;;;;;5.47;1.77;;;10.30;99.90;;;;;;4149567;28;20033;-73
2023/11/07 01:48:06;;;;;;;3.35;1.25;;;10.30;99.90;;;;;;4161473;28;20458;-67
2023/11/07 01:50:10;;;;;;;5.63;1.40;;;10.30;99.90;;;;;;4157315;28;20041;-67
2023/11/07 01:52:11;;;;;;;2.20;1.13;;;10.30;99.90;;;;;;4145864;28;20113;-67
2023/11/07 01:54:11;;;;;;;6.93;1.73;;;10.30;99.90;;;;;;4145192;28;20060;-67
2023/11/07 01:56:12;;;;;;;4.40;1.35;;;10.30;99.90;;;;;;4147555;28;20045;-67
2023/11/07 01:58:14;;;;;;;3.88;1.30;;;10.30;99.90;;;;;;4148140;28;20059;-67
2023/11/07 02:00:18;;;;;;;4.68;1.10;;;10.30;99.90;;;;;;4143899;28;20038;-67
2023/11/07 02:02:19;;;;;;;4.18;1.40;;;10.30;99.90;;;;;;4159544;28;20510;-68
2023/11/07 02:04:21;;;;;;;5.40;1.30;;;10.30;99.90;;;;;;4149347;28;20037;-68
2023/11/07 02:06:22;;;;;;;2.78;1.20;;;10.30;99.90;;;;;;4143459;28;20061;-67
2023/11/07 02:08:24;;;;;;;1.90;1.10;;;10.30;99.90;;;;;;4144733;28;20088;-67
2023/11/07 02:10:25;;;;;;;7.60;1.30;;;10.40;99.90;;;;;;4153527;28;20053;-67
2023/11/07 02:12:26;;;;;;;2.88;1.02;;;10.30;99.90;;;;;;4144194;28;20092;-67
2023/11/07 02:14:36;;;;;;;4.10;0.93;;;10.30;99.90;;;;;;4144879;28;20029;-67
2023/11/07 02:16:37;;;;;;;4.20;1.25;;;10.30;99.90;;;;;;4154466;28;20080;-68
2023/11/07 02:18:37;;;;;;;4.75;1.27;;;10.30;99.90;;;;;;4158917;28;20068;-68
2023/11/07 02:20:38;;;;;;;4.43;1.20;;;10.30;99.90;;;;;;4146377;28;20041;-68
2023/11/07 02:22:44;;;;;;;3.70;1.17;;;10.30;99.90;;;;;;4149495;28;20040;-67
2023/11/07 02:24:44;;;;;;;3.78;1.25;;;10.30;99.90;;;;;;4144373;28;20547;-67
2023/11/07 02:26:45;;;;;;;5.00;0.90;;;10.30;99.90;;;;;;4152267;28;20038;-67
2023/11/07 02:28:46;;;;;;;5.90;1.55;;;10.30;99.90;;;;;;4145586;28;20093;-67
2023/11/07 02:30:47;;;;;;;3.15;1.15;;;10.30;99.90;;;;;;4156549;28;20041;-68
2023/11/07 02:32:48;;;;;;;3.05;0.95;;;10.30;99.90;;;;;;4145198;28;20568;-69
2023/11/07 02:34:48;;;;;;;2.85;1.20;;;10.30;99.90;;;;;;4144021;28;20038;-68
2023/11/07 02:36:50;;;;;;;5.68;1.52;;;10.20;99.90;;;;;;4149399;28;20112;-67
2023/11/07 02:38:50;;;;;;;3.97;1.10;;;10.30;99.90;;;;;;4154591;28;20041;-67
2023/11/07 02:40:51;;;;;;;4.30;1.05;;;10.20;99.90;;;;;;4144478;28;20065;-67
2023/11/07 02:42:51;;;;;;;4.32;1.63;;;10.20;99.90;;;;;;4144681;28;20418;-67
2023/11/07 02:44:52;;;;;;;7.13;1.55;;;10.20;99.90;;;;;;4144212;28;20033;-67
2023/11/07 02:46:53;;;;;;;8.02;1.10;;;10.20;99.90;;;;;;4143934;28;20042;-67
2023/11/07 02:48:54;;;;;;;2.40;1.02;;;10.20;99.90;;;;;;4144016;28;20321;-67
2023/11/07 02:50:55;;;;;;;2.53;0.88;;;10.20;99.90;;;;;;4158315;28;20571;-67
2023/11/07 02:52:55;;;;;;;3.28;1.30;;;10.10;99.90;;;;;;4157663;28;20045;-67
2023/11/07 02:54:56;;;;;;;3.60;0.93;;;10.10;99.90;;;;;;4144158;28;20044;-67
2023/11/07 02:56:56;;;;;;;2.25;1.00;;;10.10;99.90;;;;;;4143290;28;20077;-73
2023/11/07 02:58:58;;;;;;;3.60;1.15;;;10.10;99.90;;;;;;4151988;28;20041;-73
2023/11/07 03:00:59;;;;;;;3.50;1.00;;;10.10;99.90;;;;;;4149808;28;20084;-73
2023/11/07 03:03:00;;;;;;;3.53;1.17;;;10.10;99.90;;;;;;4158325;28;20417;-73
2023/11/07 03:05:01;;;;;;;3.47;1.10;;;10.10;99.90;;;;;;4160469;28;20260;-73
2023/11/07 03:07:01;;;;;;;5.38;1.40;;;10.10;99.90;;;;;;4145791;28;20153;-71
2023/11/07 03:09:02;;;;;;;3.38;1.20;;;10.00;99.90;;;;;;4139698;28;20034;-71
2023/11/07 03:11:03;;;;;;;2.15;0.82;;;10.10;99.90;;;;;;4159196;28;20033;-70
2023/11/07 03:13:04;;;;;;;4.03;1.20;;;10.10;99.90;;;;;;4147271;28;20513;-71
2023/11/07 03:15:05;;;;;;;4.10;1.55;;;10.00;99.90;;;;;;4142133;28;20025;-71
2023/11/07 03:17:06;;;;;;;4.88;1.33;;;10.00;99.90;;;;;;4142908;28;20041;-71
2023/11/07 03:19:10;;;;;;;3.50;1.20;;;10.00;99.90;;;;;;4143560;28;20132;-71
2023/11/07 03:21:10;;;;;;;5.00;1.20;;;10.00;99.90;;;;;;4158436;28;20065;-70
2023/11/07 03:23:11;;;;;;;3.03;1.20;;;10.00;99.90;;;;;;4155209;28;20442;-71
2023/11/07 03:25:12;;;;;;;3.10;0.90;;;10.00;99.90;;;;;;4142563;28;20041;-71
2023/11/07 03:27:12;;;;;;;3.13;1.00;;;10.00;99.90;;;;;;4143833;28;20049;-71
2023/11/07 03:29:13;;;;;;;3.70;1.20;;;9.90;99.90;;;;;;4145653;28;20076;-71
2023/11/07 03:31:13;;;;;;;2.75;0.60;;;9.90;99.90;;;;;;4158420;28;20590;-71
2023/11/07 03:33:17;;;;;;;3.05;0.82;;;9.90;99.90;;;;;;4160124;28;20034;-71
2023/11/07 03:35:17;;;;;;;2.45;0.90;;;9.90;99.90;;;;;;4159144;28;20044;-71
2023/11/07 03:37:18;;;;;;;1.88;0.88;;;9.90;99.90;;;;;;4155291;28;20467;-72
2023/11/07 03:39:19;;;;;;;3.30;1.08;;;9.90;99.90;;;;;;4145214;28;20037;-71
2023/11/07 03:41:22;;;;;;;2.40;1.05;;;9.90;99.90;;;;;;4165852;28;20547;-71
2023/11/07 03:43:22;;;;;;;2.15;1.02;;;9.90;99.90;;;;;;4146377;28;20045;-71
2023/11/07 03:45:23;;;;;;;3.67;0.93;;;9.90;99.90;;;;;;4126973;28;20047;-71
2023/11/07 03:47:23;;;;;;;1.30;0.80;;;9.90;99.90;;;;;;4156344;28;20045;-71
2023/11/07 03:49:24;;;;;;;3.05;0.98;;;9.90;99.90;;;;;;4148830;28;20113;-71
2023/11/07 03:51:24;;;;;;;2.10;1.02;;;9.90;99.90;;;;;;4158786;28;20048;-71
2023/11/07 03:53:25;;;;;;;3.03;1.30;;;9.90;99.90;;;;;;4150756;28;20030;-71
2023/11/07 03:55:26;;;;;;;2.67;1.02;;;9.80;99.90;;;;;;4145986;28;20091;-71
2023/11/07 03:57:27;;;;;;;2.08;0.93;;;9.90;99.90;;;;;;4152993;28;20104;-71
2023/11/07 03:59:28;;;;;;;2.88;1.00;;;9.90;99.90;;;;;;4147321;28;20029;-71
2023/11/07 04:01:39;;;;;;;2.33;0.85;;;9.90;99.90;;;;;;4146474;28;20513;-70
2023/11/07 04:03:39;;;;;;;2.50;1.15;;;9.90;99.90;;;;;;4159293;28;20033;-71
2023/11/07 04:05:40;;;;;;;3.05;1.10;;;9.90;99.90;;;;;;4162024;28;20035;-71
2023/11/07 04:07:41;;;;;;;1.40;0.90;;;9.90;99.90;;;;;;4160229;28;20040;-71
2023/11/07 04:09:42;;;;;;;2.63;0.77;;;9.90;99.90;;;;;;4151497;28;20120;-71
2023/11/07 04:11:43;;;;;;;2.17;1.00;;;9.90;99.90;;;;;;4157576;28;20038;-71
2023/11/07 04:13:44;;;;;;;3.72;1.33;;;9.90;99.90;;;;;;4145198;28;20034;-71
2023/11/07 04:15:45;;;;;;;1.38;0.85;;;10.00;99.90;;;;;;4150614;28;20038;-71
2023/11/07 04:17:47;;;;;;;1.42;0.80;;;9.90;99.90;;;;;;4162944;28;20033;-67
2023/11/07 04:19:48;;;;;;;1.63;0.80;;;9.90;99.90;;;;;;4138850;28;20088;-68
2023/11/07 04:21:48;;;;;;;2.75;1.10;;;9.90;99.90;;;;;;4129012;28;20062;-68
2023/11/07 04:23:49;;;;;;;2.42;1.05;;;9.80;99.90;;;;;;4162078;28;20457;-68
2023/11/07 04:25:50;;;;;;;2.10;1.02;;;9.80;99.90;;;;;;4145189;28;20053;-68
2023/11/07 04:27:50;;;;;;;3.25;1.02;;;9.90;99.90;;;;;;4144241;28;20430;-67
2023/11/07 04:29:51;;;;;;;2.00;0.60;;;9.90;99.90;;;;;;4152451;28;20391;-67
2023/11/07 04:31:51;;;;;;;4.80;1.02;;;9.90;99.90;;;;;;4147929;28;20125;-67
2023/11/07 04:33:52;;;;;;;1.77;0.63;;;9.90;99.90;;;;;;4146010;28;20470;-67
2023/11/07 04:35:52;;;;;;;2.40;1.05;;;9.90;99.90;;;;;;4145283;28;20038;-68
2023/11/07 04:37:55;;;;;;;3.55;1.20;;;9.90;99.90;;;;;;4148624;28;20163;-67
2023/11/07 04:39:55;;;;;;;5.40;1.23;;;9.90;99.90;;;;;;4152836;28;20120;-67
2023/11/07 04:41:57;;;;;;;3.60;0.90;;;9.90;99.90;;;;;;4151591;28;20671;-67
2023/11/07 04:43:59;;;;;;;2.78;0.85;;;9.90;99.90;;;;;;4146880;28;20072;-68
2023/11/07 04:45:59;;;;;;;2.13;1.17;;;9.90;99.90;;;;;;4149686;28;20068;-67
2023/11/07 04:48:01;;;;;;;2.80;1.23;;;9.90;99.90;;;;;;4148194;28;20455;-67
2023/11/07 04:50:01;;;;;;;1.38;0.70;;;9.90;99.90;;;;;;4146286;28;20042;-67
2023/11/07 04:52:02;;;;;;;1.90;0.80;;;9.90;99.90;;;;;;4144716;28;20033;-67
2023/11/07 04:54:03;;;;;;;4.72;1.00;;;9.90;99.90;;;;;;4146099;28;20101;-68
2023/11/07 04:56:04;;;;;;;2.13;1.05;;;9.90;99.90;;;;;;4144359;28;20046;-67
2023/11/07 04:58:06;;;;;;;3.20;0.93;;;9.90;99.90;;;;;;4143441;28;20026;-67
2023/11/07 05:00:10;;;;;;;3.35;1.10;;;9.90;99.90;;;;;;4144546;28;20038;-68
2023/11/07 05:02:11;;;;;;;1.98;0.93;;;10.00;99.90;;;;;;4140653;28;20453;-67
2023/11/07 05:04:12;;;;;;;1.80;1.00;;;9.90;99.90;;;;;;4147452;28;20042;-68
2023/11/07 05:06:13;;;;;;;2.35;0.68;;;10.00;99.90;;;;;;4144241;28;20065;-67
2023/11/07 05:08:13;;;;;;;3.13;0.90;;;10.00;99.90;;;;;;4144702;28;20030;-67
2023/11/07 05:10:14;;;;;;;2.33;0.90;;;9.90;99.90;;;;;;4145494;28;20394;-68
2023/11/07 05:12:15;;;;;;;2.00;0.80;;;10.00;99.90;;;;;;4138681;28;20046;-67
2023/11/07 05:14:16;;;;;;;3.15;1.20;;;9.90;99.90;;;;;;4166564;28;20040;-67
2023/11/07 05:16:16;;;;;;;2.45;0.70;;;10.00;99.90;;;;;;4147531;28;20050;-67
2023/11/07 05:18:17;;;;;;;1.85;0.80;;;9.90;99.90;;;;;;4145353;28;20037;-67
2023/11/07 05:20:19;;;;;;;3.60;1.17;;;9.90;99.90;;;;;;4144013;28;20030;-68
2023/11/07 05:22:20;;;;;;;1.98;0.85;;;10.00;99.90;;;;;;4145434;28;20036;-68
2023/11/07 05:24:20;;;;;;;1.77;0.60;;;9.90;99.90;;;;;;4139598;28;20471;-67
2023/11/07 05:26:22;;;;;;;2.60;0.85;;;10.00;99.90;;;;;;4142795;28;20127;-70
2023/11/07 05:28:23;;;;;;;2.92;0.90;;;10.00;99.90;;;;;;4137011;28;20478;-67
2023/11/07 05:30:24;;;;;;;3.05;0.80;;;10.00;99.90;;;;;;4132111;28;20061;-67
2023/11/07 05:32:24;;;;;;;2.20;0.98;;;10.00;99.90;;;;;;4109704;28;20055;-66
2023/11/07 05:34:25;;;;;;;2.15;1.00;;;10.00;99.90;;;;;;4116747;28;20035;-67
2023/11/07 05:36:26;;;;;;;6.25;1.30;;;10.00;99.90;;;;;;4120289;28;20043;-67
2023/11/07 05:38:26;;;;;;;5.65;1.10;;;10.00;99.90;;;;;;4117866;28;20041;-67
2023/11/07 05:40:27;;;;;;;2.45;1.10;;;10.00;99.90;;;;;;4126111;28;20046;-67
2023/11/07 05:42:28;;;;;;;2.80;1.00;;;10.00;99.90;;;;;;4125053;28;20070;-67
2023/11/07 05:44:28;;;;;;;3.10;1.00;;;10.00;99.90;;;;;;4126867;28;20981;-67
2023/11/07 05:46:29;;;;;;;3.17;1.00;;;10.00;99.90;;;;;;4107864;28;20967;-67
2023/11/07 05:48:29;;;;;;;3.25;1.30;;;10.00;99.90;;;;;;4132621;28;20130;-67
2023/11/07 05:50:30;;;;;;;1.95;1.00;;;10.00;99.90;;;;;;4126511;28;20117;-67
2023/11/07 05:52:34;;;;;;;3.17;1.05;;;10.00;99.90;;;;;;4128495;28;20117;-67
2023/11/07 05:54:34;;;;;;;3.13;1.05;;;10.00;99.90;;;;;;4128477;28;20394;-66
2023/11/07 05:56:35;;;;;;;1.88;1.00;;;10.00;99.90;;;;;;4132045;28;20049;-66
2023/11/07 05:58:37;;;;;;;3.92;1.42;;;10.00;99.90;;;;;;4133472;28;20035;-67
2023/11/07 06:00:39;;;;;;;2.97;1.05;;;10.10;99.90;;;;;;4122506;28;20035;-67
2023/11/07 06:02:40;;;;;;;3.40;1.10;;;10.10;99.90;;;;;;4124583;28;20022;-67
2023/11/07 06:04:41;;;;;;;2.95;1.25;;;10.10;99.90;;;;;;4122747;28;20447;-67
2023/11/07 06:06:42;;;;;;;3.50;1.23;;;10.10;99.90;;;;;;4126023;28;20048;-67
2023/11/07 06:08:42;;;;;;;3.00;1.17;;;10.10;99.90;;;;;;4120564;28;20038;-67
2023/11/07 06:10:43;;;;;;;3.25;1.30;;;10.10;99.90;;;;;;4123166;28;20053;-67
2023/11/07 06:12:44;;;;;;;4.15;1.40;;;10.10;99.90;;;;;;4124182;28;20046;-67
2023/11/07 06:14:44;;;;;;;3.47;1.30;;;10.10;99.90;;;;;;4124817;28;20058;-66
2023/11/07 06:16:45;;;;;;;3.63;1.17;;;10.10;99.90;;;;;;4121893;28;20050;-67
2023/11/07 06:18:46;;;;;;;3.00;1.20;;;10.10;99.90;;;;;;4124303;28;20041;-67
2023/11/07 06:20:46;;;;;;;2.17;0.93;;;10.10;99.90;;;;;;4122721;28;21204;-66
2023/11/07 06:22:47;;;;;;;2.25;0.90;;;10.10;99.90;;;;;;4122476;28;20039;-67
2023/11/07 06:24:47;;;;;;;3.65;1.20;;;10.10;99.90;;;;;;4106424;28;20053;-66
2023/11/07 06:26:48;;;;;;;2.67;0.80;;;10.10;99.90;;;;;;4103939;28;20047;-67
2023/11/07 06:28:49;;;;;;;3.00;1.10;;;10.10;99.90;;;;;;4104316;28;20039;-66
2023/11/07 06:30:51;;;;;;;6.45;1.10;;;10.10;99.90;;;;;;4134799;28;20054;-69
2023/11/07 06:32:52;;;;;;;3.87;1.10;;;10.10;99.90;;;;;;4147952;28;20107;-68
2023/11/07 06:34:53;;;;;;;2.92;1.15;;;10.10;99.90;;;;;;4149198;28;20281;-67
2023/11/07 06:36:53;;;;;;;3.47;2.10;;;10.20;99.90;;;;;;4147637;28;21434;-72
2023/11/07 06:38:56;;;;;;;5.03;1.02;;;10.10;99.90;;;;;;4146758;28;20049;-72
2023/11/07 06:40:57;;;;;;;4.50;1.08;;;10.10;99.90;;;;;;4151586;28;20072;-72
2023/11/07 06:42:58;;;;;;;3.17;1.02;;;10.10;99.90;;;;;;4143703;28;20041;-71
2023/11/07 06:44:58;;;;;;;2.33;0.82;;;10.10;99.90;;;;;;4143641;28;20060;-71
2023/11/07 06:46:59;;;;;;;2.42;1.10;;;10.10;99.90;;;;;;4141894;28;20042;-72
2023/11/07 06:49:01;;;;;;;1.95;1.08;;;10.10;99.90;;;;;;4140578;28;20239;-71
2023/11/07 06:51:02;;;;;;;2.43;1.10;;;10.10;99.90;;;;;;4145761;28;20445;-72
2023/11/07 06:53:02;;;;;;;4.65;1.10;;;10.10;99.90;;;;;;4144800;28;20292;-72
2023/11/07 06:55:04;;;;;;;1.98;0.95;;;10.10;99.90;;;;;;4146192;28;20110;-71
2023/11/07 06:57:05;;;;;;;1.50;0.80;;;10.10;99.90;;;;;;4144600;28;20449;-71
2023/11/07 06:59:06;;;;;;;2.15;1.17;;;10.20;99.90;;;;;;4143444;28;20093;-71
2023/11/07 07:01:10;;;;;;;2.05;1.20;;;10.10;99.90;;;;;;4139220;28;20076;-71
2023/11/07 07:03:11;;;;;;;4.07;1.40;;;10.10;99.90;;;;;;4140183;28;20034;-71
2023/11/07 07:05:12;;;;;;;3.15;1.30;;;10.10;99.90;;;;;;4134489;28;20041;-71
2023/11/07 07:07:13;;;;;;;2.47;1.30;;;10.20;99.90;;;;;;4154806;28;20208;-71
2023/11/07 07:09:14;;;;;;;1.23;0.60;;;10.20;99.90;;;;;;4136287;28;20112;-71
2023/11/07 07:11:14;;;;;;;1.55;0.98;;;10.20;99.90;;;;;;4139946;28;20482;-71
2023/11/07 07:13:16;;;;;;;1.88;1.08;;;10.20;99.90;;;;;;4154631;28;20037;-71
2023/11/07 07:15:16;;;;;;;3.33;1.52;;;10.20;99.90;;;;;;4136999;28;20510;-71
2023/11/07 07:17:19;;;;;;;2.05;1.30;;;10.20;99.90;;;;;;4139669;28;20095;-72
2023/11/07 07:19:19;;;;;;;3.25;1.40;;;10.20;99.90;;;;;;4135319;28;20041;-72
2023/11/07 07:21:21;;;;;;;1.20;0.85;;;10.30;99.90;;;;;;4140822;28;20042;-71
2023/11/07 07:23:24;;;;;;;2.73;1.30;;;10.30;99.90;;;;;;4143763;28;20610;-71
2023/11/07 07:25:26;;;;;;;;;;;10.30;99.90;;;;;;4146205;28;20323;-72
2023/11/07 07:27:27;;;;;;;1.38;0.80;;;10.30;99.90;;;;;;4145660;28;19924;-71
2023/11/07 07:29:29;;;;;;;1.45;0.90;;;10.30;99.90;;;;;;4145753;28;20395;-71
2023/11/07 07:31:35;;;;;;;4.82;1.27;;;10.20;99.90;;;;;;4144341;28;20042;-71
2023/11/07 07:33:37;;;;;;;1.80;1.15;;;10.20;99.90;;;;;;4145731;28;20733;-71
2023/11/07 07:35:38;;;;;;;0.90;0.73;;;10.30;99.90;;;;;;4144637;28;20034;-71
2023/11/07 07:37:40;;;;;;;2.22;1.13;;;10.30;99.90;;;;;;4145982;28;20117;-72
2023/11/07 07:39:44;;;;;;;6.32;0.93;;;10.30;99.90;;;;;;4146044;28;20038;-71
2023/11/07 07:41:45;;;;;;;2.05;0.98;;;10.30;99.90;;;;;;4142059;28;20425;-72
2023/11/07 07:43:47;;;;;;;2.40;1.02;;;10.30;99.90;;;;;;4146095;28;20115;-72
2023/11/07 07:45:47;;;;;;;1.27;0.82;;;10.30;99.90;;;;;;4140749;28;20493;-72
2023/11/07 07:47:48;;;;;;;4.53;1.30;;;10.30;99.90;;;;;;4142608;28;20067;-70
2023/11/07 07:49:49;;;;;;;1.35;0.93;;;10.30;99.90;;;;;;4141549;28;20084;-71
2023/11/07 07:51:52;;;;;;;2.63;1.15;;;10.40;99.90;;;;;;4141639;28;20441;-70
2023/11/07 07:53:54;;;;;;;1.25;0.95;;;10.40;99.90;;;;;;4143012;28;20069;-71
2023/11/07 07:55:55;;;;;;;4.90;1.15;;;10.40;99.90;;;;;;4141025;28;20049;-71
2023/11/07 07:58:00;;;;;;;1.92;1.02;;;10.40;99.90;;;;;;4145235;28;20034;-71
2023/11/07 08:00:00;;;;;;;3.95;1.08;;;10.40;99.90;;;;;;4144250;28;20052;-70
2023/11/07 08:02:06;;;;;;;4.32;1.30;;;10.50;99.90;;;;;;4143889;28;20033;-71
2023/11/07 08:04:06;;;;;;;2.28;0.80;;;10.50;99.90;;;;;;4145281;28;20030;-70
2023/11/07 08:06:07;;;;;;;1.58;0.73;;;10.50;99.90;;;;;;4143911;28;20541;-70
2023/11/07 08:08:08;;;;;;;2.03;0.80;;;10.50;99.90;;;;;;4145527;28;20386;-70
2023/11/07 08:10:19;;;;;;;1.40;0.77;;;10.60;99.90;;;;;;4143265;28;20913;-71
2023/11/07 08:12:21;;;;;;;2.40;1.00;;;10.60;99.90;;;;;;4143135;28;20034;-71
2023/11/07 08:14:22;;;;;;;2.53;1.23;;;10.70;99.90;;;;;;4144588;28;20048;-70
2023/11/07 08:16:23;;;;;;;2.05;0.80;;;10.90;99.90;;;;;;4144037;28;20136;-70
2023/11/07 08:18:24;;;;;;;3.08;1.30;;;11.00;99.90;;;;;;4142546;28;20728;-70
2023/11/07 08:20:25;;;;;;;1.55;1.00;;;11.00;99.90;;;;;;4143672;28;20152;-70
2023/11/07 08:22:25;;;;;;;2.85;1.30;;;11.00;99.90;;;;;;4143450;28;20553;-70
2023/11/07 08:24:27;;;;;;;2.15;1.13;;;11.00;99.90;;;;;;4145447;28;20037;-70
2023/11/07 08:26:27;;;;;;;2.88;1.15;;;11.00;99.90;;;;;;4143777;28;20045;-70
2023/11/07 08:28:29;;;;;;;2.20;1.17;;;11.00;99.90;;;;;;4145273;28;20033;-70
2023/11/07 08:30:30;;;;;;;1.77;0.87;;;10.90;99.90;;;;;;4158960;28;20057;-70
2023/11/07 08:32:30;;;;;;;2.63;1.00;;;11.00;99.90;;;;;;4146040;28;20611;-70
2023/11/07 08:34:32;;;;;;;2.78;1.10;;;10.90;99.90;;;;;;4144127;28;20040;-70
2023/11/07 08:36:34;;;;;;;1.85;1.23;;;11.00;99.90;;;;;;4139750;28;20041;-70
2023/11/07 08:38:35;;;;;;;3.10;1.27;;;11.00;99.90;;;;;;4142521;28;20418;-70
2023/11/07 08:40:36;;;;;;;1.60;0.80;;;11.00;99.90;;;;;;4141645;28;20046;-70
2023/11/07 08:42:43;;;;;;;2.03;0.85;;;11.00;99.90;;;;;;4141986;28;20057;-70
2023/11/07 08:44:44;;;;;;;2.70;1.15;;;10.90;99.90;;;;;;4139000;28;20117;-70
2023/11/07 08:46:45;;;;;;;1.98;0.90;;;10.90;99.90;;;;;;4139311;28;20053;-70
2023/11/07 08:48:46;;;;;;;2.75;1.10;;;10.90;99.90;;;;;;4139849;28;20517;-70
2023/11/07 08:50:47;;;;;;;2.50;1.00;;;10.90;99.90;;;;;;4139231;28;20030;-70
2023/11/07 08:52:49;;;;;;;3.83;1.10;;;10.90;99.90;;;;;;4154577;28;20510;-70
2023/11/07 08:54:51;;;;;;;2.35;0.93;;;10.90;99.90;;;;;;4138480;28;20658;-70
2023/11/07 08:56:52;;;;;;;1.88;1.05;;;10.90;99.90;;;;;;4138799;28;20508;-69
2023/11/07 08:58:52;;;;;;;2.00;0.90;;;11.00;99.90;;;;;;4139625;28;20042;-70
2023/11/07 09:00:54;;;;;;;4.18;1.70;;;10.90;99.90;;;;;;4138431;28;20438;-70
2023/11/07 09:02:56;;;;;;;2.22;1.05;;;10.90;99.90;;;;;;4138949;28;20391;-70
2023/11/07 09:04:56;;;;;;;4.60;1.50;;;10.90;99.90;;;;;;4139546;28;20037;-70
2023/11/07 09:06:58;;;;;;;2.63;1.20;;;10.90;99.90;;;;;;4140652;28;20037;-68
2023/11/07 09:08:59;;;;;;;3.60;1.10;;;10.90;99.90;;;;;;4141372;28;20069;-69
2023/11/07 09:11:00;;;;;;;4.40;1.20;;;11.00;99.90;;;;;;4139738;28;20069;-69
2023/11/07 09:13:03;;;;;;;2.38;1.23;;;10.90;99.90;;;;;;4142408;28;20053;-68
2023/11/07 09:15:05;;;;;;;2.65;0.88;;;10.90;99.90;;;;;;4140534;28;20680;-69
2023/11/07 09:17:06;;;;;;;4.22;1.40;;;10.90;99.90;;;;;;4141637;28;20069;-70
2023/11/07 09:19:07;;;;;;;4.28;1.55;;;10.90;99.90;;;;;;4142052;28;20045;-70
2023/11/07 09:21:08;;;;;;;1.60;1.10;;;10.90;99.90;;;;;;4141890;28;20121;-70
2023/11/07 09:23:09;;;;;;;2.78;1.10;;;11.00;99.90;;;;;;4142343;28;20050;-71
2023/11/07 09:25:10;;;;;;;3.33;1.27;;;11.10;99.90;;;;;;4140652;28;22606;-71
2023/11/07 09:27:11;;;;;;;2.55;1.40;;;11.20;99.90;;;;;;4139462;28;20052;-71
2023/11/07 09:29:11;;;;;;;2.03;1.20;;;11.30;99.90;;;;;;4140921;28;20459;-71
2023/11/07 09:31:12;;;;;;;4.53;1.60;;;11.40;99.90;;;;;;4124499;28;20062;-70
2023/11/07 09:33:14;;;;;;;2.70;1.50;;;11.50;99.90;;;;;;4126106;28;20038;-70
2023/11/07 09:35:15;;;;;;;1.47;1.27;;;11.60;99.90;;;;;;4123949;28;20156;-71
2023/11/07 09:37:16;;;;;;;2.75;1.50;;;11.60;99.90;;;;;;4124046;28;20071;-71
2023/11/07 09:39:18;;;;;;;3.90;1.63;;;11.60;99.90;;;;;;4125533;28;20042;-70
2023/11/07 09:41:19;;;;;;;3.60;1.77;;;11.70;99.90;;;;;;4105957;28;20162;-70
2023/11/07 09:43:22;;;;;;;4.72;1.63;;;11.70;99.90;;;;;;4122217;28;20047;-70
2023/11/07 09:45:23;;;;;;;2.28;1.60;;;11.80;99.90;;;;;;4120647;28;20038;-70
2023/11/07 09:47:25;;;;;;;3.40;1.90;;;11.80;99.90;;;;;;4125292;28;20100;-70
2023/11/07 09:49:26;;;;;;;4.55;2.00;;;11.90;99.90;;;;;;4106219;28;20031;-70
2023/11/07 09:51:27;;;;;;;4.18;1.77;;;11.90;99.90;;;;;;4106121;28;20369;-70
2023/11/07 09:53:29;;;;;;;5.22;1.60;;;12.00;99.90;;;;;;4124043;28;20049;-70
2023/11/07 09:55:30;;;;;;;4.70;2.00;;;12.10;99.90;;;;;;4120922;28;20045;-70
2023/11/07 09:57:35;;;;;;;5.15;2.05;;;12.20;99.90;;;;;;4122298;28;20050;-70
2023/11/07 09:59:52;;;;;;;2.53;1.50;;;12.20;99.90;;;;;;4120942;28;20038;-70
2023/11/07 10:01:54;;;;;;;3.90;1.23;;;12.20;99.90;;;;;;4118211;28;20469;-70
2023/11/07 10:03:55;;;;;;;3.67;1.60;;;12.30;99.90;;;;;;4087737;28;20069;-69
2023/11/07 10:05:58;;;;;;;5.38;1.58;;;12.30;99.90;;;;;;4101726;28;20097;-69
2023/11/07 10:07:59;;;;;;;5.55;2.00;;;12.20;99.90;;;;;;4121292;28;20198;-69
2023/11/07 10:10:05;;;;;;;2.78;1.40;;;12.30;99.90;;;;;;4118823;28;20046;-70
2023/11/07 10:12:14;;;;;;;6.22;1.92;;;12.30;99.90;;;;;;4101986;28;20062;-69
2023/11/07 10:14:18;;;;;;;3.92;1.77;;;12.30;99.90;;;;;;4101148;28;20046;-69
2023/11/07 10:16:19;;;;;;;5.47;1.83;;;12.30;99.90;;;;;;4118207;28;20133;-69
2023/11/07 10:18:20;;;;;;;7.63;2.45;;;12.30;99.90;;;;;;4120729;28;20695;-69
2023/11/07 10:20:20;;;;;;;3.20;1.33;;;12.20;99.90;;;;;;4118325;28;20054;-69
2023/11/07 10:22:21;;;;;;;3.88;1.55;;;12.30;99.90;;;;;;4119111;28;21188;-69
2023/11/07 10:24:21;;;;;;;3.30;1.17;;;12.30;99.90;;;;;;4101396;28;20053;-69
2023/11/07 10:26:24;;;;;;;2.67;1.15;;;12.30;99.90;;;;;;4118232;28;20038;-70
2023/11/07 10:28:25;;;;;;;4.72;1.58;;;12.40;99.90;;;;;;4100063;28;20050;-68
2023/11/07 10:30:39;;;;;;;4.03;1.55;;;12.40;99.90;;;;;;4118414;28;20414;-69
2023/11/07 10:32:46;;;;;;;3.13;1.17;;;12.40;99.90;;;;;;4120809;28;20046;-68